Hutchinson, MN

2:38 PM CST on December 12, 2017 (GMT -0600)
Hutchinson Municipal-Butler

Weather History for KHCD - August, 2013

Change the Weather History Date:

Sunday, August 18, 2013

  Actual Average Record
Temperature  
Mean Temperature 66 °F -  
Max Temperature 80 °F 83 °F 96 °F (1988)
Min Temperature 52 °F 58 °F 44 °F (1977)
Growing Degree Days 16 (Base 50)    
Moisture  
Dew Point 58 °F    
Average Humidity 72    
Maximum Humidity 97    
Minimum Humidity 49    
Precipitation  
Precipitation 0.00 in - - ()
Sea Level Pressure  
Sea Level Pressure 30.09 in    
Wind  
Wind Speed 4 mph (South)    
Max Wind Speed 15 mph    
Max Gust Speed 21 mph    
Visibility 10 miles    
Events      
Averages and records for this station are not official NWS values.
T = Trace of Precipitation, MM = Missing Value Source: NWS Daily Summary

Daily Weather History Graph

Daily Weather History Graph

Search for Another Location

Airport or City:

Trip Planner

Search our weather history database for the weather conditions in past years. The results will help you decide how hot, cold, wet, or windy it might be!

Date:

Astronomy

Aug. 18, 2013 Rise Set
Actual Time 6:23 AM CDT 8:18 PM CDT
Civil Twilight 5:51 AM CDT 8:49 PM CDT
Nautical Twilight 5:13 AM CDT 9:28 PM CDT
Astronomical Twilight 4:30 AM CDT 10:10 PM CDT
Moon 6:27 PM CDT (8/18) 3:30 AM CDT (8/18)
Length of Visible Light 14h 57m
Length of Day
13h 54m
Waxing Gibbous, 92% of the Moon is Illuminated
Aug 18
Waxing Gibbous
Aug 20
Full
Aug 28
Last Quarter
Sep 5
New
Sep 12
First Quarter

Hourly Weather History & Observations

Time (CDT) Temp. Dew Point Humidity Pressure Visibility Wind Dir Wind Speed Gust Speed Precip Events Conditions
12:14 AM 62.6 °F 57.2 °F 82% 30.12 in 10.0 mi South 3.5 mph - N/A   Clear
12:34 AM 62.6 °F 57.2 °F 82% 30.13 in 10.0 mi South 3.5 mph - N/A   Clear
12:53 AM 62.4 °F 56.7 °F 81% 30.13 in 10.0 mi South 4.6 mph - N/A   Clear
1:13 AM 61.7 °F 56.3 °F 82% 30.13 in 10.0 mi South 3.5 mph - N/A   Clear
1:34 AM 61.0 °F 56.1 °F 84% 30.14 in 10.0 mi South 4.6 mph - N/A   Clear
1:53 AM 60.3 °F 55.8 °F 85% 30.14 in 10.0 mi Calm Calm - N/A   Clear
2:14 AM 59.0 °F 55.4 °F 88% 30.14 in 10.0 mi South 3.5 mph - N/A   Clear
2:19 AM 59.2 °F 55.4 °F 87% 30.13 in 10.0 mi South 3.5 mph - N/A   Clear
2:45 AM 59.0 °F 55.4 °F 88% 30.13 in 10.0 mi South 3.5 mph - N/A   Clear
3:05 AM 59.0 °F 55.4 °F 88% 30.13 in 10.0 mi Calm Calm - N/A   Clear
3:28 AM 58.1 °F 55.0 °F 90% 30.13 in 10.0 mi Calm Calm - N/A   Clear
3:33 AM 57.7 °F 54.7 °F 90% 30.13 in 10.0 mi Calm Calm - N/A   Clear
3:53 AM 57.7 °F 54.5 °F 89% 30.14 in 10.0 mi Calm Calm - N/A   Clear
4:14 AM 55.6 °F 53.4 °F 92% 30.14 in 10.0 mi Calm Calm - N/A   Clear
4:34 AM 55.4 °F 53.4 °F 93% 30.13 in 10.0 mi Calm Calm - N/A   Clear
4:54 AM 53.8 °F 52.3 °F 95% 30.13 in 10.0 mi Calm Calm - N/A   Clear
5:13 AM 53.1 °F 51.6 °F 95% 30.13 in 10.0 mi ESE 3.5 mph - N/A   Clear
5:34 AM 52.7 °F 51.6 °F 96% 30.13 in 10.0 mi Calm Calm - N/A   Clear
5:53 AM 52.0 °F 50.9 °F 96% 30.13 in 10.0 mi Calm Calm - N/A   Clear
6:14 AM 52.9 °F 52.2 °F 97% 30.13 in 10.0 mi Calm Calm - N/A   Clear
6:33 AM 53.8 °F 52.3 °F 95% 30.14 in 10.0 mi Calm Calm - N/A   Clear
6:54 AM 54.7 °F 53.1 °F 94% 30.14 in 10.0 mi Calm Calm - N/A   Clear
7:13 AM 56.3 °F 53.8 °F 91% 30.13 in 10.0 mi Calm Calm - N/A   Clear
7:33 AM 57.9 °F 54.9 °F 90% 30.14 in 10.0 mi Calm Calm - N/A   Clear
7:54 AM 59.7 °F 56.1 °F 88% 30.13 in 10.0 mi Calm Calm - N/A   Clear
8:13 AM 61.0 °F 56.7 °F 86% 30.14 in 10.0 mi SSE 3.5 mph - N/A   Clear
8:33 AM 62.6 °F 57.4 °F 83% 30.14 in 10.0 mi SSE 3.5 mph - N/A   Clear
8:54 AM 64.8 °F 57.6 °F 77% 30.14 in 10.0 mi SSE 5.8 mph - N/A   Clear
9:13 AM 66.4 °F 58.5 °F 76% 30.14 in 10.0 mi South 6.9 mph - N/A   Clear
9:34 AM 68.2 °F 58.8 °F 72% 30.14 in 10.0 mi South 6.9 mph - N/A   Clear
9:54 AM 70.0 °F 59.4 °F 69% 30.14 in 10.0 mi South 5.8 mph - N/A   Clear
10:13 AM 72.0 °F 60.1 °F 66% 30.13 in 10.0 mi South 10.4 mph - N/A   Clear
10:34 AM 72.9 °F 59.5 °F 63% 30.13 in 10.0 mi SSE 9.2 mph - N/A   Clear
10:54 AM 74.1 °F 59.7 °F 61% 30.13 in 10.0 mi South 8.1 mph - N/A   Clear
11:14 AM 75.4 °F 59.5 °F 58% 30.12 in 10.0 mi South 9.2 mph - N/A   Clear
11:33 AM 76.3 °F 59.2 °F 55% 30.11 in 10.0 mi South 11.5 mph 16.1 mph N/A   Clear
11:54 AM 77.0 °F 58.8 °F 53% 30.11 in 10.0 mi South 15.0 mph 19.6 mph N/A   Clear
12:14 PM 77.4 °F 59.5 °F 54% 30.11 in 10.0 mi South 10.4 mph 16.1 mph N/A   Clear
12:33 PM 77.2 °F 58.6 °F 53% 30.10 in 10.0 mi South 11.5 mph 19.6 mph N/A   Clear
12:54 PM 77.9 °F 59.0 °F 52% 30.09 in 10.0 mi South 12.7 mph 19.6 mph N/A   Clear
1:13 PM 78.4 °F 59.2 °F 51% 30.08 in 10.0 mi South 12.7 mph 20.7 mph N/A   Clear
1:33 PM 79.0 °F 59.4 °F 51% 30.07 in 10.0 mi South 11.5 mph 18.4 mph N/A   Clear
1:54 PM 79.3 °F 59.5 °F 51% 30.07 in 10.0 mi South 11.5 mph 17.3 mph N/A   Clear
2:14 PM 79.0 °F 59.7 °F 52% 30.07 in 10.0 mi South 11.5 mph 18.4 mph N/A   Clear
2:34 PM 79.5 °F 59.0 °F 49% 30.08 in 10.0 mi SSW 9.2 mph 18.4 mph N/A   Clear
2:53 PM 79.3 °F 59.0 °F 50% 30.09 in 10.0 mi South 9.2 mph 17.3 mph N/A   Clear
3:13 PM 78.6 °F 58.6 °F 50% 30.09 in 10.0 mi SSW 6.9 mph 16.1 mph N/A   Clear
3:33 PM 78.6 °F 58.5 °F 50% 30.09 in 10.0 mi SSW 6.9 mph - N/A   Clear
3:53 PM 78.6 °F 59.5 °F 52% 30.08 in 10.0 mi South 8.1 mph - N/A   Clear
4:14 PM 78.1 °F 58.5 °F 51% 30.07 in 10.0 mi South 11.5 mph - N/A   Clear
4:33 PM 78.4 °F 59.7 °F 52% 30.07 in 10.0 mi South 5.8 mph - N/A   Clear
4:53 PM 78.8 °F 60.3 °F 53% 30.06 in 10.0 mi South 8.1 mph - N/A   Clear
5:13 PM 78.4 °F 58.5 °F 50% 30.06 in 10.0 mi South 6.9 mph 16.1 mph N/A   Clear
5:33 PM 78.3 °F 59.2 °F 52% 30.06 in 10.0 mi South 8.1 mph - N/A   Clear
5:53 PM 78.1 °F 60.3 °F 54% 30.05 in 10.0 mi South 8.1 mph - N/A   Clear
6:14 PM 77.2 °F 59.9 °F 55% 30.04 in 10.0 mi South 6.9 mph - N/A   Clear
6:33 PM 76.8 °F 60.6 °F 57% 30.04 in 10.0 mi South 6.9 mph - N/A   Clear
6:54 PM 75.9 °F 60.4 °F 59% 30.03 in 10.0 mi South 8.1 mph - N/A   Clear
7:13 PM 74.7 °F 59.9 °F 60% 30.03 in 10.0 mi South 4.6 mph - N/A   Clear
7:34 PM 73.8 °F 60.1 °F 62% 30.03 in 10.0 mi South 4.6 mph - N/A   Clear
7:53 PM 72.1 °F 59.9 °F 65% 30.02 in 10.0 mi South 3.5 mph - N/A   Clear
8:13 PM 70.5 °F 59.9 °F 69% 30.02 in 10.0 mi South 4.6 mph - N/A   Clear
8:34 PM 69.3 °F 59.2 °F 70% 30.02 in 10.0 mi SSE 3.5 mph - N/A   Clear
8:53 PM 68.5 °F 59.5 °F 73% 30.02 in 10.0 mi Calm Calm - N/A   Mostly Cloudy
9:13 PM 68.0 °F 60.6 °F 77% 30.02 in 10.0 mi Calm Calm - N/A   Overcast
9:34 PM 68.0 °F 61.3 °F 79% 30.02 in 10.0 mi SSE 4.6 mph - N/A   Overcast
9:53 PM 67.5 °F 61.7 °F 82% 30.02 in 10.0 mi South 4.6 mph - N/A   Mostly Cloudy
10:14 PM 69.1 °F 61.5 °F 77% 30.02 in 10.0 mi South 5.8 mph - N/A   Overcast
10:33 PM 68.7 °F 61.2 °F 77% 30.02 in 10.0 mi South 5.8 mph - N/A   Mostly Cloudy
10:53 PM 68.0 °F 61.2 °F 79% 30.02 in 10.0 mi South 5.8 mph - N/A   Mostly Cloudy
11:13 PM 68.0 °F 61.2 °F 79% 30.02 in 10.0 mi South 3.5 mph - N/A   Overcast
11:34 PM 67.1 °F 61.2 °F 81% 30.03 in 10.0 mi Calm Calm - N/A   Overcast
11:53 PM 67.1 °F 61.2 °F 81% 30.03 in 10.0 mi Calm Calm - N/A   Overcast